Terminal Aerodrome Forecast
Issued by NWS Memphis, TN

Home | Current Version | Previous Version | Text Only | Print | Product List | Glossary On
Versions: 1 2 3 4 5 6 7 8 9 10 11 12 13 14 15 16 17 18 19 20 21 22 23 24 25 26 27 28 29 30 31 32 33 34 35 36
000
FTUS44 KMEG 290800 AAC
TAFMEM
TAF AMD
KMEM 290800Z 2908/3006 21007KT P6SM VCTS BKN030CB
     FM290900 VRB03KT P6SM VCSH BKN050 OVC090
     FM291500 27005KT P6SM SCT050 SCT250
     FM300000 VRB03KT P6SM BKN250=

USA.gov is the U.S. government's official web portal to all federal, state and local government web resources and services.